createdAt,value
2023-01-10T00:00:42.724Z,7.60
2023-01-10T00:03:11.555Z,7.60
2023-01-10T00:05:40.308Z,7.43
2023-01-10T00:08:08.731Z,7.97
2023-01-10T00:10:36.489Z,6.07
2023-01-10T00:13:21.857Z,7.43
2023-01-10T00:15:49.679Z,7.97
2023-01-10T00:18:16.747Z,7.63
2023-01-10T00:20:45.719Z,7.97
2023-01-10T00:23:13.723Z,8.37
2023-01-10T00:25:40.881Z,8.80
2023-01-10T00:28:20.417Z,8.40
2023-01-10T00:31:06.464Z,8.17
2023-01-10T00:33:34.865Z,8.97
2023-01-10T00:36:04.260Z,9.07
2023-01-10T00:38:35.779Z,8.60
2023-01-10T00:41:24.208Z,8.83
2023-01-10T00:43:56.733Z,9.10
2023-01-10T00:46:24.373Z,8.73
2023-01-10T00:48:51.245Z,8.90
2023-01-10T00:51:18.423Z,8.60
2023-01-10T00:53:45.186Z,8.03
2023-01-10T00:56:11.945Z,9.20
2023-01-10T00:58:38.692Z,8.27
2023-01-10T01:01:05.777Z,8.20
2023-01-10T01:03:32.620Z,8.50
2023-01-10T01:06:06.200Z,8.50
2023-01-10T01:08:33.572Z,8.23
2023-01-10T01:11:00.667Z,8.07
2023-01-10T01:13:27.586Z,8.20
2023-01-10T01:15:59.352Z,8.00
2023-01-10T01:18:27.384Z,7.40
2023-01-10T01:20:56.940Z,6.97
2023-01-10T01:23:24.608Z,8.10
2023-01-10T01:25:53.071Z,8.00
2023-01-10T01:28:21.778Z,7.47
2023-01-10T01:30:49.219Z,7.73
2023-01-10T01:33:17.469Z,5.73
2023-01-10T01:35:46.681Z,4.83
2023-01-10T01:38:15.718Z,5.43
2023-01-10T01:40:42.804Z,5.30
2023-01-10T01:43:31.864Z,5.90
2023-01-10T01:46:04.231Z,5.50
2023-01-10T01:48:39.060Z,6.77
2023-01-10T01:51:18.391Z,7.70
2023-01-10T01:53:54.497Z,7.20
2023-01-10T01:56:28.254Z,8.87
2023-01-10T01:59:08.468Z,8.97
2023-01-10T02:01:38.723Z,9.37
2023-01-10T02:04:51.250Z,10.23
2023-01-10T02:07:18.562Z,10.30
2023-01-10T02:10:11.781Z,10.00
2023-01-10T02:12:39.771Z,9.50
2023-01-10T02:15:07.710Z,6.60
2023-01-10T02:17:34.469Z,8.20
2023-01-10T02:20:06.790Z,10.23
2023-01-10T02:23:11.370Z,9.20
2023-01-10T02:26:15.579Z,8.80
2023-01-10T02:29:23.216Z,9.00
2023-01-10T02:32:56.605Z,8.30
2023-01-10T02:35:52.038Z,8.77
2023-01-10T02:38:49.649Z,8.83
2023-01-10T02:41:46.699Z,8.97
2023-01-10T02:44:30.326Z,9.90
2023-01-10T02:46:57.414Z,8.83
2023-01-10T02:49:24.195Z,6.80
2023-01-10T02:51:50.927Z,8.80
2023-01-10T02:54:30.586Z,8.83
2023-01-10T02:57:45.302Z,8.40
2023-01-10T03:00:56.806Z,7.87
2023-01-10T03:04:04.937Z,7.27
2023-01-10T03:06:53.195Z,8.67
2023-01-10T03:09:55.733Z,8.40
2023-01-10T03:12:35.875Z,7.57
2023-01-10T03:15:06.290Z,7.90
2023-01-10T03:17:35.165Z,7.83
2023-01-10T03:20:06.923Z,8.33
2023-01-10T03:22:39.418Z,8.40
2023-01-10T03:25:10.391Z,8.53
2023-01-10T03:28:02.940Z,8.20
2023-01-10T03:31:17.162Z,7.93
2023-01-10T03:33:44.760Z,7.60
2023-01-10T03:36:26.772Z,7.60
2023-01-10T03:39:26.942Z,7.67
2023-01-10T03:42:10.296Z,8.47
2023-01-10T03:45:01.691Z,8.37
2023-01-10T03:47:47.708Z,9.20
2023-01-10T03:50:27.167Z,8.73
2023-01-10T03:52:54.058Z,8.33
2023-01-10T03:55:25.992Z,9.03
2023-01-10T03:57:52.774Z,8.43
2023-01-10T04:00:20.454Z,8.20
2023-01-10T04:02:47.234Z,7.90
2023-01-10T04:05:14.253Z,7.63
2023-01-10T04:07:41.385Z,7.47
2023-01-10T04:10:09.368Z,7.80
2023-01-10T04:12:36.428Z,8.00
2023-01-10T04:15:03.846Z,7.47
2023-01-10T04:17:30.650Z,8.03
2023-01-10T04:19:57.439Z,8.57
2023-01-10T04:22:24.204Z,7.53
2023-01-10T04:24:54.384Z,7.20
2023-01-10T04:27:21.742Z,7.07
2023-01-10T04:29:48.559Z,7.00
2023-01-10T04:32:15.377Z,7.13
2023-01-10T04:34:42.296Z,7.47
2023-01-10T04:37:09.077Z,7.00
2023-01-10T04:39:35.864Z,7.40
2023-01-10T04:42:02.626Z,6.60
2023-01-10T04:44:29.496Z,6.90
2023-01-10T04:46:56.348Z,6.83
2023-01-10T04:49:23.269Z,6.60
2023-01-10T04:51:50.148Z,6.47
2023-01-10T04:54:21.741Z,6.43
2023-01-10T04:56:49.173Z,6.70
2023-01-10T04:59:16.506Z,6.93
2023-01-10T05:01:43.754Z,7.00
2023-01-10T05:04:10.723Z,6.17
2023-01-10T05:06:40.010Z,7.00
2023-01-10T05:09:10.265Z,7.03
2023-01-10T05:11:37.097Z,6.67
2023-01-10T05:14:03.863Z,6.83
2023-01-10T05:16:30.785Z,6.57
2023-01-10T05:18:57.623Z,6.60
2023-01-10T05:21:24.638Z,7.17
2023-01-10T05:23:51.383Z,6.90
2023-01-10T05:26:23.177Z,6.77
2023-01-10T05:28:50.461Z,6.70
2023-01-10T05:31:19.816Z,6.03
2023-01-10T05:33:52.276Z,6.00
2023-01-10T05:36:19.544Z,5.90
2023-01-10T05:38:46.818Z,5.73
2023-01-10T05:41:13.847Z,7.17
2023-01-10T05:43:40.785Z,6.63
2023-01-10T05:46:07.681Z,6.20
2023-01-10T05:48:34.593Z,6.90
2023-01-10T05:51:01.463Z,5.97
2023-01-10T05:53:28.238Z,7.13
2023-01-10T05:56:02.185Z,6.23
2023-01-10T05:58:30.060Z,6.50
2023-01-10T06:00:58.205Z,8.00
2023-01-10T06:03:26.516Z,6.43
2023-01-10T06:05:57.317Z,6.23
2023-01-10T06:08:25.106Z,5.50
2023-01-10T06:10:52.608Z,5.77
2023-01-10T06:13:19.481Z,5.80
2023-01-10T06:15:46.753Z,5.50
2023-01-10T06:18:13.669Z,4.90
2023-01-10T06:20:44.340Z,5.27
2023-01-10T06:23:11.731Z,5.27
2023-01-10T06:25:40.863Z,4.97
2023-01-10T06:28:13.881Z,5.30
2023-01-10T06:30:43.785Z,4.80
2023-01-10T06:33:12.419Z,5.13
2023-01-10T06:35:39.535Z,5.13
2023-01-10T06:38:06.283Z,4.50
2023-01-10T06:40:33.089Z,5.37
2023-01-10T06:43:00.157Z,4.83
2023-01-10T06:45:26.989Z,5.30
2023-01-10T06:47:53.845Z,5.50
2023-01-10T06:50:20.740Z,4.93
2023-01-10T06:52:57.180Z,4.27
2023-01-10T06:55:24.633Z,4.50
2023-01-10T06:57:59.472Z,4.20
2023-01-10T07:00:28.058Z,3.97
2023-01-10T07:02:59.808Z,5.47
2023-01-10T07:05:27.122Z,4.30
2023-01-10T07:07:53.968Z,5.97
2023-01-10T07:10:20.801Z,5.20
2023-01-10T07:12:47.592Z,4.03
2023-01-10T07:15:14.437Z,8.20
2023-01-10T07:17:41.212Z,5.53
2023-01-10T07:20:09.092Z,4.00
2023-01-10T07:22:35.918Z,3.90
2023-01-10T07:25:03.235Z,3.93
2023-01-10T07:27:33.891Z,3.17
2023-01-10T07:30:00.920Z,4.07
2023-01-10T07:32:28.111Z,3.40
2023-01-10T07:34:54.911Z,3.60
2023-01-10T07:37:21.734Z,3.37
2023-01-10T07:39:48.986Z,3.73
2023-01-10T07:42:15.769Z,3.83
2023-01-10T07:44:42.683Z,3.80
2023-01-10T07:47:09.652Z,3.47
2023-01-10T07:49:36.380Z,3.70
2023-01-10T07:52:03.530Z,3.57
2023-01-10T07:54:30.388Z,3.30
2023-01-10T07:56:57.173Z,3.90
2023-01-10T07:59:23.995Z,3.20
2023-01-10T08:01:50.822Z,3.50
2023-01-10T08:04:17.513Z,3.53
2023-01-10T08:06:44.268Z,3.60
2023-01-10T08:09:11.220Z,3.80
2023-01-10T08:11:39.683Z,2.90
2023-01-10T08:14:07.562Z,3.10
2023-01-10T08:16:35.425Z,3.07
2023-01-10T08:19:02.204Z,3.80
2023-01-10T08:21:28.956Z,5.40
2023-01-10T08:23:55.796Z,3.37
2023-01-10T08:26:22.604Z,3.13
2023-01-10T08:28:49.544Z,3.30
2023-01-10T08:31:16.428Z,3.17
2023-01-10T08:33:43.236Z,2.93
2023-01-10T08:36:18.948Z,2.60
2023-01-10T08:38:46.308Z,2.87
2023-01-10T08:41:13.944Z,3.10
2023-01-10T08:43:40.828Z,2.90
2023-01-10T08:46:08.291Z,3.43
2023-01-10T08:48:35.630Z,3.00
2023-01-10T08:51:09.302Z,3.20
2023-01-10T08:53:36.379Z,3.87
2023-01-10T08:56:05.525Z,3.50
2023-01-10T08:58:32.660Z,3.23
2023-01-10T09:05:26.234Z,3.30
2023-01-10T09:08:02.536Z,2.40
2023-01-10T09:10:31.841Z,3.77
2023-01-10T09:13:02.055Z,2.70
2023-01-10T09:15:38.402Z,3.00
2023-01-10T09:18:07.871Z,2.90
2023-01-10T09:20:38.618Z,2.87
2023-01-10T09:23:09.255Z,2.70
2023-01-10T09:25:39.123Z,2.43
2023-01-10T09:28:07.225Z,3.10
2023-01-10T09:30:34.230Z,3.53
2023-01-10T09:33:02.366Z,2.70
2023-01-10T09:35:31.988Z,2.60
2023-01-10T09:38:01.450Z,2.63
2023-01-10T09:40:41.038Z,3.13
2023-01-10T09:43:22.924Z,2.90
2023-01-10T09:46:08.675Z,3.00
2023-01-10T09:49:25.071Z,2.87
2023-01-10T09:51:59.097Z,2.67
2023-01-10T09:54:50.723Z,3.00
2023-01-10T09:57:23.781Z,2.90
2023-01-10T09:59:54.655Z,3.47
2023-01-10T10:02:33.092Z,3.23
2023-01-10T10:05:27.873Z,3.70
2023-01-10T10:08:05.084Z,2.83
2023-01-10T10:10:41.334Z,3.27
2023-01-10T10:13:42.025Z,3.10
2023-01-10T10:17:08.726Z,2.60
2023-01-10T10:20:25.531Z,2.60
2023-01-10T10:23:42.562Z,2.50
2023-01-10T10:26:25.150Z,2.77
2023-01-10T10:28:58.481Z,2.70
2023-01-10T10:32:02.027Z,2.33
2023-01-10T10:34:38.157Z,3.10
2023-01-10T10:37:24.938Z,3.20
2023-01-10T10:39:58.396Z,2.50
2023-01-10T10:42:39.911Z,2.77
2023-01-10T10:45:23.993Z,2.30
2023-01-10T10:48:12.639Z,2.90
2023-01-10T10:51:12.585Z,2.47
2023-01-10T10:53:39.808Z,2.90
2023-01-10T10:56:13.926Z,2.37
2023-01-10T10:58:44.944Z,2.60
2023-01-10T11:01:15.424Z,2.50
2023-01-10T11:03:52.702Z,2.37
2023-01-10T11:06:21.217Z,2.30
2023-01-10T11:08:53.441Z,2.30
2023-01-10T11:11:33.993Z,2.60
2023-01-10T11:14:05.418Z,2.87
2023-01-10T11:16:42.124Z,2.70
2023-01-10T11:19:24.066Z,3.10
2023-01-10T11:21:59.012Z,3.33
2023-01-10T11:24:35.956Z,2.90
2023-01-10T11:27:16.192Z,2.40
2023-01-10T11:29:51.509Z,2.20
2023-01-10T11:32:23.664Z,1.93
2023-01-10T11:35:23.156Z,2.10
2023-01-10T11:38:17.261Z,1.97
2023-01-10T11:41:04.653Z,2.77
2023-01-10T11:43:40.622Z,1.93
2023-01-10T11:46:17.119Z,1.87
2023-01-10T11:49:19.569Z,2.23
2023-01-10T11:51:51.792Z,2.30
2023-01-10T11:54:24.809Z,2.07
2023-01-10T11:57:07.442Z,1.50
2023-01-10T11:59:34.561Z,2.37
2023-01-10T12:02:23.274Z,1.93
2023-01-10T12:04:53.090Z,1.37
2023-01-10T12:07:20.118Z,2.00
2023-01-10T12:09:59.022Z,2.10
2023-01-10T12:12:33.437Z,2.20
2023-01-10T12:15:24.871Z,1.80
2023-01-10T12:17:53.464Z,2.20
2023-01-10T12:20:20.310Z,2.80
2023-01-10T12:22:58.612Z,1.70
2023-01-10T12:25:36.110Z,2.10
2023-01-10T12:28:03.797Z,2.00
2023-01-10T12:30:38.880Z,2.03
2023-01-10T12:33:17.259Z,1.43
2023-01-10T12:36:13.356Z,2.33
2023-01-10T12:39:14.327Z,3.00
2023-01-10T12:42:27.851Z,2.13
2023-01-10T12:45:10.451Z,1.93
2023-01-10T12:48:17.187Z,1.93
2023-01-10T12:51:04.451Z,1.87
2023-01-10T12:53:39.795Z,1.93
2023-01-10T12:56:14.769Z,2.27
2023-01-10T12:58:47.103Z,2.00
2023-01-10T13:01:23.282Z,2.60
2023-01-10T13:04:00.407Z,2.03
2023-01-10T13:06:40.640Z,2.10
2023-01-10T13:09:20.032Z,1.60
2023-01-10T13:12:24.440Z,2.37
2023-01-10T13:15:26.640Z,1.87
2023-01-10T13:18:21.207Z,1.47
2023-01-10T13:20:48.279Z,2.47
2023-01-10T13:23:30.222Z,2.00
2023-01-10T13:26:09.042Z,2.50
2023-01-10T13:28:58.280Z,1.80
2023-01-10T13:31:31.100Z,2.50
2023-01-10T13:34:15.384Z,2.13
2023-01-10T13:36:51.346Z,2.50
2023-01-10T13:39:46.067Z,2.00
2023-01-10T13:42:43.548Z,2.33
2023-01-10T13:45:13.193Z,2.30
2023-01-10T13:47:40.034Z,2.23
2023-01-10T13:50:33.645Z,1.90
2023-01-10T13:53:07.929Z,2.23
2023-01-10T13:55:42.550Z,2.23
2023-01-10T13:58:20.110Z,2.30
2023-01-10T14:01:11.539Z,2.00
2023-01-10T14:03:53.894Z,1.80
2023-01-10T14:06:29.607Z,2.43
2023-01-10T14:09:05.281Z,2.20
2023-01-10T14:11:44.268Z,1.97
2023-01-10T14:14:25.065Z,2.77
2023-01-10T14:16:56.640Z,2.53
2023-01-10T14:19:31.880Z,1.90
2023-01-10T14:22:02.387Z,2.67
2023-01-10T14:24:35.961Z,2.47
2023-01-10T14:27:04.513Z,1.87
2023-01-10T14:29:33.998Z,3.03
2023-01-10T14:32:01.507Z,2.73
2023-01-10T14:34:37.091Z,2.63
2023-01-10T14:37:16.816Z,2.40
2023-01-10T14:39:44.870Z,3.30
2023-01-10T14:42:17.658Z,2.60
2023-01-10T14:45:19.590Z,2.63
2023-01-10T14:47:48.784Z,2.20
2023-01-10T14:50:32.476Z,3.43
2023-01-10T14:53:00.512Z,2.53
2023-01-10T14:55:28.015Z,2.93
2023-01-10T14:58:01.568Z,2.93
2023-01-10T15:00:36.442Z,2.67
2023-01-10T15:03:04.432Z,3.10
2023-01-10T15:05:39.164Z,2.80
2023-01-10T15:08:29.112Z,2.80
2023-01-10T15:11:10.210Z,2.73
2023-01-10T15:14:03.487Z,2.40
2023-01-10T15:16:31.875Z,3.13
2023-01-10T15:18:59.027Z,2.27
2023-01-10T15:21:25.969Z,3.23
2023-01-10T15:23:52.885Z,2.93
2023-01-10T15:26:30.851Z,3.20
2023-01-10T15:29:32.125Z,3.13
2023-01-10T15:32:15.759Z,2.77
2023-01-10T15:34:42.612Z,2.30
2023-01-10T15:37:22.752Z,2.47
2023-01-10T15:39:50.049Z,2.50
2023-01-10T15:42:21.770Z,2.50
2023-01-10T15:44:55.327Z,2.60
2023-01-10T15:47:42.617Z,2.40
2023-01-10T15:50:23.387Z,2.80
2023-01-10T15:53:01.208Z,2.17
2023-01-10T15:55:49.172Z,2.00
2023-01-10T15:58:19.306Z,2.63
2023-01-10T16:00:49.183Z,2.80
2023-01-10T16:03:43.892Z,3.00
2023-01-10T16:06:27.555Z,2.53
2023-01-10T16:08:58.607Z,3.53
2023-01-10T16:12:00.007Z,2.70
2023-01-10T16:14:26.889Z,2.97
2023-01-10T16:16:53.671Z,2.80
2023-01-10T16:19:20.498Z,1.17
2023-01-10T16:21:57.766Z,2.40
2023-01-10T16:24:28.980Z,2.30
2023-01-10T16:26:58.191Z,2.67
2023-01-10T16:29:25.049Z,2.87
2023-01-10T16:31:53.338Z,2.83
2023-01-10T16:34:21.366Z,2.20
2023-01-10T16:36:48.430Z,2.13
2023-01-10T16:39:19.123Z,2.53
2023-01-10T16:42:05.248Z,3.00
2023-01-10T16:44:33.858Z,1.53
2023-01-10T16:47:01.670Z,1.40
2023-01-10T16:49:28.527Z,1.87
2023-01-10T16:51:57.371Z,3.00
2023-01-10T16:54:25.940Z,2.43
2023-01-10T16:56:52.796Z,2.10
2023-01-10T16:59:20.467Z,1.20
2023-01-10T17:01:54.529Z,2.20
2023-01-10T17:04:28.132Z,2.50
2023-01-10T17:06:56.609Z,3.03
2023-01-10T17:09:27.457Z,1.77
2023-01-10T17:12:07.230Z,1.90
2023-01-10T17:14:37.515Z,2.33
2023-01-10T17:17:05.389Z,2.40
2023-01-10T17:19:32.489Z,1.87
2023-01-10T17:22:00.279Z,2.37
2023-01-10T17:24:29.631Z,2.40
2023-01-10T17:26:56.629Z,2.50
2023-01-10T17:29:23.584Z,2.40
2023-01-10T17:31:50.625Z,2.60
2023-01-10T17:34:17.565Z,2.80
2023-01-10T17:36:44.378Z,2.00
2023-01-10T17:39:11.551Z,2.40
2023-01-10T17:41:38.516Z,2.63
2023-01-10T17:44:05.822Z,2.17
2023-01-10T17:46:32.738Z,2.97
2023-01-10T17:48:59.579Z,2.40
2023-01-10T17:51:28.819Z,2.77
2023-01-10T17:53:56.122Z,2.80
2023-01-10T17:56:23.352Z,3.80
2023-01-10T17:58:51.700Z,2.60
2023-01-10T18:01:25.410Z,2.60
2023-01-10T18:03:53.271Z,2.83
2023-01-10T18:06:25.077Z,3.20
2023-01-10T18:08:53.758Z,3.13
2023-01-10T18:11:22.891Z,2.80
2023-01-10T18:13:49.724Z,2.93
2023-01-10T18:16:16.754Z,2.57
2023-01-10T18:18:43.546Z,2.33
2023-01-10T18:21:16.513Z,2.83
2023-01-10T18:23:44.189Z,2.07
2023-01-10T18:26:12.854Z,2.90
2023-01-10T18:28:43.560Z,2.10
2023-01-10T18:31:18.526Z,2.13
2023-01-10T18:33:47.335Z,2.63
2023-01-10T18:36:22.265Z,2.13
2023-01-10T18:38:51.020Z,1.83
2023-01-10T18:41:20.208Z,2.00
2023-01-10T18:43:47.781Z,1.93
2023-01-10T18:46:20.831Z,2.47
2023-01-10T18:48:51.393Z,1.07
2023-01-10T18:51:19.052Z,1.50
2023-01-10T18:53:47.483Z,1.80
2023-01-10T18:56:14.794Z,2.17
2023-01-10T18:58:43.089Z,2.30
2023-01-10T19:01:22.124Z,1.20
2023-01-10T19:03:50.235Z,2.20
2023-01-10T19:06:21.510Z,2.37
2023-01-10T19:08:51.356Z,1.43
2023-01-10T19:11:19.869Z,0.90
2023-01-10T19:13:49.987Z,0.93
2023-01-10T19:16:32.117Z,2.60
2023-01-10T19:19:06.455Z,1.80
2023-01-10T19:21:34.167Z,2.40
2023-01-10T19:24:05.029Z,2.10
2023-01-10T19:26:32.300Z,2.07
2023-01-10T19:28:59.213Z,2.20
2023-01-10T19:31:29.193Z,0.80
2023-01-10T19:33:59.948Z,2.33
2023-01-10T19:36:28.079Z,1.47
2023-01-10T19:38:58.949Z,1.63
2023-01-10T19:41:28.493Z,2.00
2023-01-10T19:44:01.612Z,1.40
2023-01-10T19:46:32.135Z,1.60
2023-01-10T19:49:02.114Z,1.83
2023-01-10T19:51:29.196Z,1.43
2023-01-10T19:53:56.015Z,1.03
2023-01-10T19:56:23.287Z,2.00
2023-01-10T19:58:51.330Z,2.00
2023-01-10T20:01:23.244Z,1.87
2023-01-10T20:03:50.228Z,2.20
2023-01-10T20:06:22.331Z,1.67
2023-01-10T20:08:49.333Z,1.70
2023-01-10T20:11:18.187Z,1.07
2023-01-10T20:13:45.395Z,1.37
2023-01-10T20:16:14.590Z,1.60
2023-01-10T20:18:42.559Z,2.00
2023-01-10T20:21:12.803Z,2.00
2023-01-10T20:23:41.163Z,2.30
2023-01-10T20:26:16.807Z,1.70
2023-01-10T20:28:45.193Z,2.00
2023-01-10T20:31:23.130Z,2.07
2023-01-10T20:33:50.554Z,1.43
2023-01-10T20:36:21.389Z,1.73
2023-01-10T20:38:49.367Z,2.33
2023-01-10T20:41:22.433Z,1.80
2023-01-10T20:43:50.594Z,1.93
2023-01-10T20:46:21.804Z,1.30
2023-01-10T20:48:48.966Z,2.23
2023-01-10T20:51:27.289Z,1.53
2023-01-10T20:53:54.100Z,1.03
2023-01-10T20:56:25.168Z,1.50
2023-01-10T20:58:53.528Z,1.70
2023-01-10T21:01:33.758Z,2.40
2023-01-10T21:04:04.792Z,2.03
2023-01-10T21:06:31.920Z,1.27
2023-01-10T21:08:59.032Z,1.93
2023-01-10T21:11:26.077Z,2.00
2023-01-10T21:13:53.193Z,2.27
2023-01-10T21:16:22.361Z,1.90
2023-01-10T21:18:50.561Z,1.70
2023-01-10T21:21:22.551Z,1.73
2023-01-10T21:23:49.584Z,1.70
2023-01-10T21:26:16.590Z,1.70
2023-01-10T21:28:49.292Z,2.20
2023-01-10T21:31:20.565Z,1.97
2023-01-10T21:33:49.321Z,1.73
2023-01-10T21:36:18.171Z,1.43
2023-01-10T21:38:45.451Z,1.30
2023-01-10T21:41:36.151Z,1.70
2023-01-10T21:44:04.488Z,1.90
2023-01-10T21:46:31.466Z,2.07
2023-01-10T21:48:58.418Z,1.70
2023-01-10T21:51:25.371Z,1.43
2023-01-10T21:53:52.366Z,1.50
2023-01-10T21:56:19.269Z,1.70
2023-01-10T21:58:47.994Z,2.00
2023-01-10T22:01:15.611Z,2.00
2023-01-10T22:03:45.638Z,1.53
2023-01-10T22:06:13.520Z,1.10
2023-01-10T22:08:40.578Z,1.70
2023-01-10T22:11:10.555Z,1.20
2023-01-10T22:13:38.712Z,1.53
2023-01-10T22:16:06.966Z,1.50
2023-01-10T22:18:34.104Z,1.87
2023-01-10T22:21:00.922Z,1.40
2023-01-10T22:23:30.672Z,1.20
2023-01-10T22:26:10.674Z,1.30
2023-01-10T22:28:37.469Z,1.40
2023-01-10T22:31:05.350Z,1.60
2023-01-10T22:33:37.023Z,0.97
2023-01-10T22:36:13.806Z,1.20
2023-01-10T22:38:41.625Z,1.50
2023-01-10T22:41:19.900Z,1.40
2023-01-10T22:43:47.853Z,0.67
2023-01-10T22:46:15.836Z,1.10
2023-01-10T22:48:43.541Z,0.80
2023-01-10T22:51:10.827Z,0.87
2023-01-10T22:53:37.583Z,0.80
2023-01-10T22:56:07.507Z,0.87
2023-01-10T22:58:34.970Z,1.03
2023-01-10T23:01:05.427Z,1.00
2023-01-10T23:03:32.711Z,1.10
2023-01-10T23:06:00.818Z,0.40
2023-01-10T23:08:28.442Z,1.03
2023-01-10T23:10:55.670Z,1.30
2023-01-10T23:13:23.978Z,1.03
2023-01-10T23:15:59.963Z,1.20
2023-01-10T23:18:28.637Z,1.50
2023-01-10T23:20:56.406Z,1.00
2023-01-10T23:23:25.002Z,1.00
2023-01-10T23:26:01.890Z,1.00
2023-01-10T23:28:38.171Z,1.50
2023-01-10T23:31:06.586Z,1.20
2023-01-10T23:33:34.963Z,1.00
2023-01-10T23:36:02.446Z,1.20
2023-01-10T23:38:29.356Z,0.90
2023-01-10T23:40:56.996Z,1.00
2023-01-10T23:43:24.481Z,1.00
2023-01-10T23:45:51.907Z,1.20
2023-01-10T23:48:19.422Z,1.20
2023-01-10T23:50:50.843Z,1.20
2023-01-10T23:53:18.953Z,1.07
2023-01-10T23:55:46.182Z,0.80
2023-01-10T23:58:13.557Z,1.10
